Maize, Kansas
Current Conditions -  °F | °C
As of 11:53 PM on Monday 26 Jan 2015 (Local Time) from KICT Reporting Station
Clear Clear  
Wind Chill: 39°   Ceiling: Unl
Heat Index: 43°   Visibility: 10mi
Dew Point: 32°   Wind: 7mph
Humidity: 65%   Direction: 320°NW
Pressure: 30.07"   Gusts: NA
Location:  37.78°N, 97.47°W
Report Text: KICT 270553Z 32006KT 10SM CLR 06/00 A3007 RMK AO2 SLP182 T00610000 10167 20050 402331039 53006
Loading
Personal Weather Stations






























Interactive Weather Map New forecast layout! Learn more

10-Day Weather Forecast

Advertisements
Track Severe Weather on mobile